createdAt,value
2022-09-12T00:02:03.824Z,4.45
2022-09-12T00:04:57.171Z,3.85
2022-09-12T00:07:50.963Z,4.80
2022-09-12T00:10:45.365Z,4.03
2022-09-12T00:13:42.044Z,4.65
2022-09-12T00:16:36.700Z,4.55
2022-09-12T00:19:30.848Z,4.55
2022-09-12T00:22:24.090Z,4.72
2022-09-12T00:25:17.844Z,4.05
2022-09-12T00:28:10.865Z,4.63
2022-09-12T00:31:08.109Z,4.40
2022-09-12T00:34:03.043Z,3.70
2022-09-12T00:36:55.652Z,4.18
2022-09-12T00:39:49.097Z,4.35
2022-09-12T00:42:42.769Z,3.80
2022-09-12T00:45:36.239Z,3.97
2022-09-12T00:48:36.048Z,4.15
2022-09-12T00:51:31.690Z,3.75
2022-09-12T00:54:29.073Z,3.70
2022-09-12T00:57:24.609Z,3.45
2022-09-12T01:00:20.534Z,3.72
2022-09-12T01:03:17.308Z,3.83
2022-09-12T01:06:16.580Z,4.07
2022-09-12T01:09:13.197Z,4.15
2022-09-12T01:12:07.551Z,3.88
2022-09-12T01:15:00.893Z,3.65
2022-09-12T01:18:07.628Z,4.50
2022-09-12T01:21:15.935Z,4.03
2022-09-12T01:24:27.891Z,3.80
2022-09-12T01:27:37.947Z,4.35
2022-09-12T01:30:48.511Z,4.00
2022-09-12T01:33:56.989Z,3.72
2022-09-12T01:36:59.549Z,4.28
2022-09-12T01:40:01.652Z,4.10
2022-09-12T01:43:03.435Z,3.85
2022-09-12T01:46:04.500Z,3.83
2022-09-12T01:49:02.323Z,4.07
2022-09-12T01:52:02.294Z,4.15
2022-09-12T01:55:00.151Z,3.95
2022-09-12T01:57:59.519Z,3.60
2022-09-12T02:01:02.339Z,4.40
2022-09-12T02:04:04.542Z,4.25
2022-09-12T02:07:02.620Z,3.63
2022-09-12T02:10:00.631Z,3.40
2022-09-12T02:12:57.601Z,3.42
2022-09-12T02:15:55.862Z,3.50
2022-09-12T02:18:54.206Z,4.03
2022-09-12T02:21:53.128Z,3.55
2022-09-12T02:24:50.883Z,3.85
2022-09-12T02:27:48.374Z,3.45
2022-09-12T02:30:46.531Z,4.15
2022-09-12T02:33:47.971Z,3.70
2022-09-12T02:36:50.861Z,3.40
2022-09-12T02:39:45.473Z,3.25
2022-09-12T02:42:39.164Z,3.17
2022-09-12T02:45:34.584Z,3.30
2022-09-12T02:48:32.517Z,3.83
2022-09-12T02:51:27.137Z,3.10
2022-09-12T02:54:22.195Z,3.47
2022-09-12T02:57:22.577Z,3.55
2022-09-12T03:00:16.456Z,3.58
2022-09-12T03:03:38.219Z,3.60
2022-09-12T03:06:38.877Z,3.33
2022-09-12T03:09:41.878Z,3.13
2022-09-12T03:12:47.963Z,3.47
2022-09-12T03:15:51.081Z,3.42
2022-09-12T03:18:52.723Z,3.08
2022-09-12T03:21:56.174Z,3.60
2022-09-12T03:24:55.170Z,3.30
2022-09-12T03:27:54.926Z,4.30
2022-09-12T03:30:51.357Z,4.05
2022-09-12T03:33:45.668Z,3.65
2022-09-12T03:36:39.623Z,3.35
2022-09-12T03:39:33.942Z,4.03
2022-09-12T03:42:28.156Z,3.90
2022-09-12T03:45:21.393Z,3.58
2022-09-12T03:48:15.024Z,3.58
2022-09-12T03:51:10.337Z,3.50
2022-09-12T03:54:03.688Z,3.72
2022-09-12T03:56:57.036Z,3.80
2022-09-12T03:59:51.447Z,3.67
2022-09-12T04:02:45.566Z,3.17
2022-09-12T04:05:38.945Z,3.72
2022-09-12T04:08:32.292Z,3.80
2022-09-12T04:11:25.908Z,3.30
2022-09-12T04:14:19.131Z,3.35
2022-09-12T04:17:13.932Z,3.20
2022-09-12T04:20:07.872Z,3.25
2022-09-12T04:23:00.939Z,3.78
2022-09-12T04:25:57.355Z,3.33
2022-09-12T04:28:56.128Z,3.20
2022-09-12T04:31:49.528Z,3.53
2022-09-12T04:34:44.449Z,3.85
2022-09-12T04:37:38.138Z,3.42
2022-09-12T04:40:31.730Z,3.30
2022-09-12T04:43:25.410Z,3.53
2022-09-12T04:46:20.238Z,3.53
2022-09-12T04:49:14.294Z,3.67
2022-09-12T04:52:09.058Z,3.15
2022-09-12T04:55:02.456Z,3.20
2022-09-12T04:57:56.043Z,3.70
2022-09-12T05:00:49.329Z,3.13
2022-09-12T05:03:44.327Z,3.17
2022-09-12T05:06:38.629Z,3.17
2022-09-12T05:09:33.149Z,3.53
2022-09-12T05:12:26.534Z,3.47
2022-09-12T05:15:19.823Z,3.70
2022-09-12T05:18:12.631Z,3.20
2022-09-12T05:21:09.225Z,3.67
2022-09-12T05:24:02.436Z,2.95
2022-09-12T05:26:57.349Z,2.90
2022-09-12T05:29:51.012Z,3.47
2022-09-12T05:32:44.010Z,3.03
2022-09-12T05:35:38.195Z,3.13
2022-09-12T05:38:31.047Z,2.92
2022-09-12T05:41:26.024Z,3.17
2022-09-12T05:44:20.941Z,2.90
2022-09-12T05:47:14.575Z,2.83
2022-09-12T05:50:10.839Z,3.17
2022-09-12T05:53:04.444Z,2.58
2022-09-12T05:56:09.908Z,3.33
2022-09-12T05:59:05.782Z,3.10
2022-09-12T06:02:00.259Z,3.88
2022-09-12T06:04:53.536Z,3.10
2022-09-12T06:07:47.600Z,3.08
2022-09-12T06:10:41.701Z,2.95
2022-09-12T06:13:37.594Z,3.55
2022-09-12T06:16:32.449Z,3.25
2022-09-12T06:19:28.021Z,3.30
2022-09-12T06:22:21.319Z,3.17
2022-09-12T06:25:14.243Z,2.97
2022-09-12T06:28:08.513Z,3.00
2022-09-12T06:31:06.620Z,2.88
2022-09-12T06:34:02.369Z,3.13
2022-09-12T06:36:56.396Z,2.90
2022-09-12T06:39:49.921Z,3.35
2022-09-12T06:42:42.966Z,2.90
2022-09-12T06:45:36.252Z,2.50
2022-09-12T06:48:29.329Z,3.00
2022-09-12T06:51:22.859Z,3.13
2022-09-12T06:54:17.773Z,2.83
2022-09-12T06:57:11.326Z,2.35
2022-09-12T07:00:05.056Z,2.90
2022-09-12T07:02:58.670Z,2.33
2022-09-12T07:05:52.218Z,2.85
2022-09-12T07:08:45.746Z,2.17
2022-09-12T07:11:41.779Z,3.10
2022-09-12T07:14:35.284Z,2.83
2022-09-12T07:17:27.818Z,3.00
2022-09-12T07:20:21.796Z,2.60
2022-09-12T07:23:15.114Z,2.55
2022-09-12T07:26:08.616Z,2.38
2022-09-12T07:29:32.250Z,2.40
2022-09-12T07:32:17.740Z,2.15
2022-09-12T07:35:11.048Z,2.47
2022-09-12T07:38:04.570Z,2.42
2022-09-12T07:40:58.602Z,2.38
2022-09-12T07:43:54.050Z,2.22
2022-09-12T07:46:48.373Z,2.30
2022-09-12T07:49:41.460Z,2.13
2022-09-12T07:52:35.027Z,2.50
2022-09-12T07:55:28.244Z,2.10
2022-09-12T07:58:21.147Z,2.42
2022-09-12T08:01:16.225Z,2.45
2022-09-12T08:04:10.430Z,2.50
2022-09-12T08:07:03.334Z,2.50
2022-09-12T08:09:56.705Z,2.40
2022-09-12T08:12:50.889Z,2.90
2022-09-12T08:15:44.200Z,2.90
2022-09-12T08:18:37.650Z,2.92
2022-09-12T08:21:34.133Z,3.15
2022-09-12T08:24:27.912Z,2.97
2022-09-12T08:27:21.102Z,3.13
2022-09-12T08:30:15.312Z,2.83
2022-09-12T08:33:08.343Z,2.60
2022-09-12T08:36:06.055Z,2.78
2022-09-12T08:39:02.664Z,3.20
2022-09-12T08:42:01.769Z,2.42
2022-09-12T08:45:10.704Z,2.80
2022-09-12T08:48:07.362Z,2.90
2022-09-12T08:51:01.447Z,3.03
2022-09-12T08:53:57.085Z,2.88
2022-09-12T08:56:56.383Z,2.70
2022-09-12T08:59:49.679Z,3.38
2022-09-12T09:03:18.694Z,3.08
2022-09-12T09:06:24.479Z,3.00
2022-09-12T09:09:24.457Z,2.83
2022-09-12T09:12:25.499Z,2.97
2022-09-12T09:15:38.677Z,2.85
2022-09-12T09:18:36.049Z,2.63
2022-09-12T09:21:34.817Z,2.88
2022-09-12T09:24:34.760Z,3.13
2022-09-12T09:27:41.015Z,3.33
2022-09-12T09:30:37.127Z,2.65
2022-09-12T09:33:36.019Z,2.50
2022-09-12T09:36:40.595Z,2.80
2022-09-12T09:39:46.637Z,2.75
2022-09-12T09:42:47.119Z,2.90
2022-09-12T09:45:44.559Z,2.70
2022-09-12T09:48:44.717Z,3.13
2022-09-12T09:51:40.417Z,2.85
2022-09-12T09:54:38.795Z,2.88
2022-09-12T09:57:46.517Z,2.72
2022-09-12T10:00:40.919Z,2.83
2022-09-12T10:03:38.961Z,2.78
2022-09-12T10:06:34.530Z,2.80
2022-09-12T10:09:28.955Z,3.20
2022-09-12T10:12:28.412Z,2.65
2022-09-12T10:15:26.095Z,3.13
2022-09-12T10:18:35.270Z,2.95
2022-09-12T10:21:34.673Z,3.00
2022-09-12T10:24:31.613Z,3.05
2022-09-12T10:27:27.264Z,3.47
2022-09-12T10:30:25.239Z,2.90
2022-09-12T10:33:18.417Z,3.20
2022-09-12T10:36:11.490Z,3.70
2022-09-12T10:39:05.065Z,3.38
2022-09-12T10:41:58.809Z,2.92
2022-09-12T10:44:55.561Z,2.90
2022-09-12T10:47:50.772Z,3.42
2022-09-12T10:50:44.340Z,3.60
2022-09-12T10:53:43.605Z,3.13
2022-09-12T10:56:42.000Z,2.80
2022-09-12T10:59:50.724Z,3.33
2022-09-12T11:02:55.880Z,2.83
2022-09-12T11:05:55.854Z,3.00
2022-09-12T11:08:59.460Z,3.90
2022-09-12T11:12:07.375Z,3.58
2022-09-12T11:15:14.199Z,3.50
2022-09-12T11:18:17.251Z,3.47
2022-09-12T11:21:27.504Z,3.53
2022-09-12T11:24:46.410Z,3.17
2022-09-12T11:27:53.650Z,3.65
2022-09-12T11:30:56.769Z,3.88
2022-09-12T11:33:56.552Z,3.78
2022-09-12T11:37:07.429Z,4.18
2022-09-12T11:40:14.463Z,3.45
2022-09-12T11:43:17.725Z,3.88
2022-09-12T11:46:18.635Z,4.00
2022-09-12T11:49:25.508Z,3.35
2022-09-12T11:52:21.285Z,4.40
2022-09-12T11:55:19.028Z,3.72
2022-09-12T11:58:13.716Z,3.90
2022-09-12T12:01:15.044Z,4.18
2022-09-12T12:04:13.167Z,4.10
2022-09-12T12:07:11.186Z,4.30
2022-09-12T12:10:05.301Z,3.60
2022-09-12T12:12:59.901Z,3.95
2022-09-12T12:15:57.286Z,3.75
2022-09-12T12:18:55.984Z,3.22
2022-09-12T12:21:50.499Z,4.05
2022-09-12T12:25:29.422Z,3.78
2022-09-12T12:29:01.609Z,3.58
2022-09-12T12:32:24.701Z,3.90
2022-09-12T12:35:41.840Z,3.50
2022-09-12T12:38:37.158Z,3.97
2022-09-12T12:41:55.647Z,3.80
2022-09-12T12:44:51.651Z,3.97
2022-09-12T12:47:47.179Z,4.10
2022-09-12T12:50:40.816Z,3.90
2022-09-12T12:53:36.411Z,3.47
2022-09-12T12:56:35.350Z,3.88
2022-09-12T12:59:30.715Z,3.65
2022-09-12T13:02:28.084Z,3.90
2022-09-12T13:05:24.113Z,3.75
2022-09-12T13:08:32.496Z,3.53
2022-09-12T13:11:32.900Z,3.90
2022-09-12T13:14:49.004Z,3.75
2022-09-12T13:17:44.172Z,3.75
2022-09-12T13:20:46.280Z,3.88
2022-09-12T13:23:39.589Z,3.60
2022-09-12T13:26:36.508Z,3.78
2022-09-12T13:29:29.967Z,3.58
2022-09-12T13:32:24.927Z,3.53
2022-09-12T13:35:29.161Z,3.80
2022-09-12T13:38:32.201Z,2.95
2022-09-12T13:41:41.166Z,3.28
2022-09-12T13:44:42.570Z,3.58
2022-09-12T13:47:39.138Z,3.83
2022-09-12T13:50:38.192Z,3.50
2022-09-12T13:53:36.794Z,3.47
2022-09-12T13:56:30.949Z,3.47
2022-09-12T13:59:24.589Z,3.38
2022-09-12T14:02:21.489Z,3.20
2022-09-12T14:05:22.037Z,3.50
2022-09-12T14:08:16.733Z,3.63
2022-09-12T14:11:10.964Z,3.28
2022-09-12T14:14:08.106Z,3.38
2022-09-12T14:17:02.515Z,3.30
2022-09-12T14:19:59.327Z,3.65
2022-09-12T14:22:54.338Z,3.40
2022-09-12T14:25:49.396Z,3.15
2022-09-12T14:28:45.205Z,3.25
2022-09-12T14:31:41.205Z,3.35
2022-09-12T14:34:34.472Z,3.33
2022-09-12T14:37:27.640Z,3.45
2022-09-12T14:40:23.657Z,3.25
2022-09-12T14:43:21.513Z,3.20
2022-09-12T14:46:19.622Z,3.20
2022-09-12T14:49:17.701Z,3.40
2022-09-12T14:52:25.409Z,3.40
2022-09-12T14:55:30.667Z,3.05
2022-09-12T14:58:26.518Z,3.33
2022-09-12T15:01:26.503Z,3.13
2022-09-12T15:04:40.680Z,3.33
2022-09-12T15:07:36.218Z,3.72
2022-09-12T15:10:33.014Z,3.70
2022-09-12T15:13:28.110Z,3.10
2022-09-12T15:16:22.037Z,3.53
2022-09-12T15:19:15.549Z,3.20
2022-09-12T15:22:10.543Z,3.35
2022-09-12T15:25:03.699Z,3.42
2022-09-12T15:27:58.000Z,3.63
2022-09-12T15:30:54.253Z,3.38
2022-09-12T15:33:48.099Z,3.30
2022-09-12T15:36:41.485Z,3.03
2022-09-12T15:39:34.298Z,2.92
2022-09-12T15:42:31.489Z,3.20
2022-09-12T15:45:28.530Z,3.55
2022-09-12T15:48:22.061Z,3.10
2022-09-12T15:51:17.009Z,3.47
2022-09-12T15:54:16.032Z,3.17
2022-09-12T15:57:09.494Z,3.58
2022-09-12T16:00:03.008Z,3.05
2022-09-12T16:02:57.700Z,2.88
2022-09-12T16:05:50.810Z,3.47
2022-09-12T16:08:43.475Z,3.55
2022-09-12T16:11:36.715Z,2.83
2022-09-12T16:14:29.303Z,3.00
2022-09-12T16:17:22.228Z,3.15
2022-09-12T16:20:16.808Z,3.33
2022-09-12T16:23:12.255Z,3.08
2022-09-12T16:26:07.048Z,3.33
2022-09-12T16:29:00.807Z,2.97
2022-09-12T16:31:53.494Z,3.38
2022-09-12T16:34:47.023Z,2.67
2022-09-12T16:37:42.110Z,2.63
2022-09-12T16:40:35.883Z,3.15
2022-09-12T16:43:28.576Z,2.72
2022-09-12T16:46:23.421Z,3.17
2022-09-12T16:49:16.678Z,2.80
2022-09-12T16:52:11.131Z,2.78
2022-09-12T16:55:07.394Z,3.33
2022-09-12T16:58:00.807Z,2.78
2022-09-12T17:01:01.370Z,3.40
2022-09-12T17:03:56.558Z,2.72
2022-09-12T17:06:49.648Z,3.20
2022-09-12T17:09:47.372Z,2.83
2022-09-12T17:12:42.867Z,3.00
2022-09-12T17:15:38.566Z,3.00
2022-09-12T17:18:31.595Z,3.08
2022-09-12T17:21:25.306Z,3.75
2022-09-12T17:24:19.257Z,3.40
2022-09-12T17:27:12.696Z,3.25
2022-09-12T17:30:08.644Z,3.30
2022-09-12T17:33:01.330Z,3.17
2022-09-12T17:35:54.831Z,3.35
2022-09-12T17:38:48.242Z,3.40
2022-09-12T17:41:42.619Z,3.47
2022-09-12T17:44:36.120Z,3.45
2022-09-12T17:47:30.793Z,3.30
2022-09-12T17:50:32.410Z,3.83
2022-09-12T17:53:27.643Z,3.40
2022-09-12T17:56:20.822Z,3.03
2022-09-12T17:59:16.196Z,3.50
2022-09-12T18:02:15.775Z,3.45
2022-09-12T18:05:10.197Z,3.72
2022-09-12T18:08:04.151Z,3.38
2022-09-12T18:11:05.596Z,3.33
2022-09-12T18:13:59.408Z,3.22
2022-09-12T18:16:52.678Z,3.65
2022-09-12T18:19:45.395Z,3.75
2022-09-12T18:22:39.963Z,3.42
2022-09-12T18:25:32.685Z,3.72
2022-09-12T18:28:25.552Z,3.97
2022-09-12T18:31:21.606Z,3.60
2022-09-12T18:34:15.352Z,3.75
2022-09-12T18:37:08.760Z,3.58
2022-09-12T18:40:03.833Z,3.42
2022-09-12T18:42:56.916Z,3.92
2022-09-12T18:45:49.809Z,3.28
2022-09-12T18:48:43.427Z,3.83
2022-09-12T18:51:39.949Z,4.05
2022-09-12T18:54:33.466Z,3.53
2022-09-12T18:57:30.499Z,3.75
2022-09-12T19:00:24.250Z,4.07
2022-09-12T19:03:17.319Z,3.60
2022-09-12T19:06:12.105Z,3.35
2022-09-12T19:09:08.165Z,4.15
2022-09-12T19:12:02.264Z,3.92
2022-09-12T19:14:57.872Z,4.03
2022-09-12T19:17:50.892Z,3.92
2022-09-12T19:20:43.948Z,4.20
2022-09-12T19:23:37.144Z,4.10
2022-09-12T19:26:31.141Z,4.82
2022-09-12T19:29:24.385Z,4.18
2022-09-12T19:32:18.689Z,4.35
2022-09-12T19:35:12.874Z,4.55
2022-09-12T19:38:05.714Z,3.53
2022-09-12T19:40:59.325Z,4.22
2022-09-12T19:43:53.215Z,4.80
2022-09-12T19:46:47.182Z,4.80
2022-09-12T19:49:42.241Z,4.35
2022-09-12T19:52:35.616Z,4.78
2022-09-12T19:55:28.821Z,4.55
2022-09-12T19:58:22.028Z,4.28
2022-09-12T20:01:16.533Z,4.05
2022-09-12T20:04:09.456Z,3.63
2022-09-12T20:07:04.453Z,4.43
2022-09-12T20:09:57.990Z,3.97
2022-09-12T20:12:50.749Z,4.28
2022-09-12T20:15:43.577Z,3.97
2022-09-12T20:18:38.977Z,4.80
2022-09-12T20:21:34.204Z,4.20
2022-09-12T20:24:29.503Z,4.72
2022-09-12T20:27:22.725Z,4.30
2022-09-12T20:30:15.970Z,3.75
2022-09-12T20:33:08.917Z,4.00
2022-09-12T20:36:07.240Z,4.30
2022-09-12T20:39:02.414Z,4.47
2022-09-12T20:41:57.307Z,4.15
2022-09-12T20:44:52.408Z,4.40
2022-09-12T20:47:45.911Z,4.60
2022-09-12T20:50:38.982Z,4.22
2022-09-12T20:53:34.978Z,4.07
2022-09-12T20:56:29.462Z,3.92
2022-09-12T20:59:24.415Z,4.07
2022-09-12T21:02:18.189Z,4.13
2022-09-12T21:05:11.630Z,4.50
2022-09-12T21:08:05.198Z,4.78
2022-09-12T21:10:59.371Z,4.13
2022-09-12T21:13:53.084Z,4.15
2022-09-12T21:16:47.083Z,3.80
2022-09-12T21:19:40.052Z,3.72
2022-09-12T21:22:33.122Z,4.10
2022-09-12T21:25:26.228Z,4.28
2022-09-12T21:28:19.876Z,4.65
2022-09-12T21:31:13.277Z,4.55
2022-09-12T21:34:08.274Z,4.20
2022-09-12T21:37:01.429Z,3.97
2022-09-12T21:39:55.411Z,4.57
2022-09-12T21:42:49.934Z,3.75
2022-09-12T21:45:43.226Z,4.45
2022-09-12T21:48:37.540Z,4.03
2022-09-12T21:51:32.007Z,4.45
2022-09-12T21:54:24.693Z,3.88
2022-09-12T21:57:17.960Z,4.43
2022-09-12T22:00:14.081Z,3.95
2022-09-12T22:03:07.037Z,4.38
2022-09-12T22:06:01.461Z,3.90
2022-09-12T22:08:56.194Z,4.40
2022-09-12T22:11:49.989Z,4.30
2022-09-12T22:14:43.006Z,3.90
2022-09-12T22:17:35.584Z,4.10
2022-09-12T22:20:28.644Z,4.10
2022-09-12T22:23:39.129Z,4.35
2022-09-12T22:26:41.076Z,4.03
2022-09-12T22:29:34.492Z,4.07
2022-09-12T22:32:28.240Z,3.92
2022-09-12T22:35:21.835Z,3.78
2022-09-12T22:38:14.992Z,3.80
2022-09-12T22:41:10.096Z,4.18
2022-09-12T22:44:04.380Z,3.97
2022-09-12T22:46:58.159Z,3.85
2022-09-12T22:49:51.679Z,3.30
2022-09-12T22:52:44.566Z,4.07
2022-09-12T22:55:38.251Z,3.67
2022-09-12T22:58:31.856Z,3.78
2022-09-12T23:01:26.466Z,3.85
2022-09-12T23:04:19.960Z,3.63
2022-09-12T23:07:13.114Z,3.88
2022-09-12T23:10:06.995Z,3.58
2022-09-12T23:12:59.935Z,3.63
2022-09-12T23:15:58.491Z,4.00
2022-09-12T23:18:53.283Z,3.70
2022-09-12T23:21:47.032Z,3.40
2022-09-12T23:24:40.279Z,3.78
2022-09-12T23:27:34.780Z,3.88
2022-09-12T23:30:27.845Z,3.85
2022-09-12T23:33:22.041Z,3.15
2022-09-12T23:36:16.160Z,3.28
2022-09-12T23:39:10.680Z,3.63
2022-09-12T23:42:04.156Z,3.63
2022-09-12T23:44:57.135Z,3.25
2022-09-12T23:47:49.851Z,3.33
2022-09-12T23:50:47.614Z,3.90
2022-09-12T23:53:42.449Z,3.80
2022-09-12T23:56:36.108Z,4.25
2022-09-12T23:59:30.965Z,4.20
